Cunningham, Virginia
Current Conditions -  °F | °C
As of 9:35 PM on Tuesday 21 Oct 2014 (Local Time) from KLKU Reporting Station
Drizzle Drizzle  
Wind Chill: 54°   Ceiling: 3900
Heat Index: 54°   Visibility: 10mi
Dew Point: 52°   Wind: 3mph
Humidity: 94%   Direction: 340°NNW
Pressure: 29.9"   Gusts: NA
Location:  37.8582°N, 78.2803°W
Report Text: KLKU 220135Z AUTO 34003KT 10SM -DZ SCT028 BKN039 BKN045 12/11 A2990 RMK AO2
Loading
Personal Weather Stations






























Interactive Weather Map New forecast layout! Learn more

10-Day Weather Forecast

Advertisements
Track Severe Weather on mobile